SSEC Globe Logo

Space Science and Engineering Center

Surface Aviation Observations

KAIG 271315Z AUTO 30007KT 10SM OVC023 04/03 A3005 RMK AO2
     T00350030=
KAIG 271315Z AUTO 30007KT 10SM OVC023 04/03 A3005 RMK AO2
     T00350030=
KAIG 271255Z AUTO 31006KT 10SM SCT019 OVC025 03/02 A3004 RMK
     AO2 T00270024=
KC29 271315Z AUTO 31007KT 10SM CLR 08/05 A3009 RMK AO1
     T00750049=
KC29 271315Z AUTO 31007KT 10SM CLR 08/05 A3009 RMK AO1
     T00750049=
KC29 271255Z AUTO 31007KT 10SM CLR 07/05 A3009 RMK AO1
     T00670048=
KBCK 271315Z AUTO 31004KT 10SM CLR 06/04 A3015 RMK AO2
     T00580041=
KBCK 271315Z AUTO 31004KT 10SM CLR 06/04 A3015 RMK AO2
     T00580041=
KBCK 271255Z AUTO 29003KT 10SM CLR 02/02 A3014 RMK AO2
     T00200020=
KUBE 271315Z AUTO 36008KT 10SM CLR 05/02 A3018 RMK AO2=
KUBE 271315Z AUTO 36008KT 10SM CLR 05/02 A3018 RMK AO2=
KUBE 271255Z AUTO 36007KT 10SM CLR 05/02 A3016 RMK AO2=
KPVB 271315Z AUTO 31005KT 10SM SCT075 06/04 A3012 RMK AO1
     T00570043=
KPVB 271315Z AUTO 31005KT 10SM SCT075 06/04 A3012 RMK AO1
     T00570043=
KPVB 271255Z AUTO 31003KT 10SM SCT075 BKN090 04/03 A3012 RMK
     AO1 T00400030=
KEZS 271315Z AUTO 30005KT 10SM OVC090 06/05 A3003 RMK AO2
     T00590048=
KEZS 271255Z AUTO 31004KT 10SM SCT090 05/05 A3002 RMK AO2
     T00540045=
KEZS 271255Z AUTO 31004KT 10SM SCT090 05/05 A3002 RMK AO2
     T00540045=
KARV 271315Z AUTO 35012G16KT 7SM -RA SCT009 BKN014 OVC020
     05/04 A3008 RMK AO2 T00450036=
KARV 271315Z AUTO 35012G16KT 7SM -RA SCT009 BKN014 OVC020
     05/04 A3008 RMK AO2 T00450036=
KARV 271255Z AUTO 35010KT 7SM -RA BKN013 BKN020 OVC027 04/03
     A3007 RMK AO2 T00430030=
KASX 271253Z AUTO 33010G14KT 10SM OVC034 06/02 A3015 RMK AO2
     SLP218 T00610022=
KATW 271245Z 30008KT 10SM CLR 05/03 A3001=
KATW 271245Z 30008KT 10SM CLR 05/03 A3001=
KAUW 271254Z AUTO 31007KT 10SM OVC019 06/02 A3006 RMK AO2
     SLP189 T00560017=
KAUW 271254Z AUTO 31007KT 10SM OVC019 06/02 A3006 RMK AO2
     SLP189 T00560017=
KBUU 271255Z AUTO 30008KT 10SM CLR 07/05 A3005 RMK AO2
     T00670045 PWINO=
KBUU 271315Z AUTO 29007KT 10SM CLR 08/05 A3005 RMK AO2
     T00750049 PWINO=
KBUU 271255Z AUTO 30008KT 10SM CLR 07/05 A3005 RMK AO2
     T00670045 PWINO=
KCLI 271315Z AUTO 32007KT 10SM SCT065 06/03 A3006 RMK AO2
     T00600034=
KCLI 271315Z AUTO 32007KT 10SM SCT065 06/03 A3006 RMK AO2
     T00600034=
KCLI 271255Z AUTO 30007KT 10SM CLR 05/03 A3005 RMK AO2
     T00540034=
KCMY 271258Z AUTO 00000KT 10SM CLR 00/00 A3014 RMK AO2
     SLP218 T00030001 $=
KCWA 271255Z 32008KT 10SM BKN018 03/02 A3009=
KCWA 271255Z 32008KT 10SM BKN018 03/02 A3009=
KDLL 271315Z AUTO 31004KT 10SM CLR 04/03 A3009 RMK AO2
     T00400030=
KDLL 271255Z AUTO 31003KT 10SM CLR 03/03 A3009 RMK AO2
     T00340029=
KDLL 271255Z AUTO 31003KT 10SM CLR 03/03 A3009 RMK AO2
     T00340029=
KEAU 271256Z 32006KT 10SM CLR 06/03 A3015 RMK AO2 SLP215
     T00560028=
KEAU 271256Z 32006KT 10SM CLR 06/03 A3015 RMK AO2 SLP215
     T00560028=
KEFT 271315Z AUTO 32007KT 10SM CLR 07/03 A3008 RMK AO2
     T00650026 PWINO=
KEFT 271255Z AUTO 32007KT 10SM SCT085 06/02 A3007 RMK AO2
     T00590022 PWINO=
KEFT 271255Z AUTO 32007KT 10SM SCT085 06/02 A3007 RMK AO2
     T00590022 PWINO=
KEGV 271315Z AUTO 35010G21KT 10SM -DZ OVC016 05/02 A3006 RMK
     AO2 T00500018=
KEGV 271315Z AUTO 35010G21KT 10SM -DZ OVC016 05/02 A3006 RMK
     AO2 T00500018=
KEGV 271255Z AUTO 36013G20KT 10SM OVC016 05/02 A3005 RMK AO2
     T00480015=
KENW 271253Z 29008KT 10SM CLR 08/04 A3003 RMK AO2 SLP173
     T00780044=
KETB 271315Z AUTO 30007KT 10SM CLR 06/04 A3003 RMK AO2=
KETB 271315Z AUTO 30007KT 10SM CLR 06/04 A3003 RMK AO2=
KETB 271255Z AUTO 30007KT 10SM CLR 06/03 A3003 RMK AO2=
KFLD 271253Z AUTO 31009KT 10SM CLR 07/03 A3004 RMK AO2
     SLP177 T00670033=
KGRB 271253Z 29006KT 10SM SCT065 OVC085 07/03 A3001 RMK AO2
     SLP168 T00670033=
KHYR 271317Z AUTO 36007KT 10SM BKN029 04/00 A3017 RMK AO2
     T00390000=
KHYR 271253Z AUTO VRB03KT 10SM FEW026 03/00 A3017 RMK AO2
     SLP225 T00330000=
KHYR 271253Z AUTO VRB03KT 10SM FEW026 03/00 A3017 RMK AO2
     SLP225 T00330000=
KISW 271254Z AUTO 31007KT 10SM CLR 04/02 A3009 RMK AO2
     SLP197 T00440022=
KJVL 271245Z 31006KT 10SM SCT085 07/05 A3007=
KLNL 271315Z AUTO 35006G15KT 3SM -RA OVC009 05/04 A3008 RMK
     AO2 P0001 T00450037=
KLNL 271315Z AUTO 35006G15KT 3SM -RA OVC009 05/04 A3008 RMK
     AO2 P0001 T00450037=
KLNL 271255Z AUTO 33007G14KT 310V010 3SM DZ OVC011 05/04
     A3007 RMK AO2 T00450035=
KLNR 271256Z AUTO 27006KT 10SM CLR 07/04 A3012 RMK AO2
     SLP195 T00720039=
KLNR 271256Z AUTO 27006KT 10SM CLR 07/04 A3012 RMK AO2
     SLP195 T00720039=
KLSE 271253Z 35007KT 10SM CLR 07/04 A3015 RMK AO2 SLP213
     T00720044=
KLUM 271315Z AUTO 32007G19KT 10SM CLR 07/03 A3018 RMK AO2
     T00700031=
KLUM 271255Z AUTO 30010KT 10SM CLR 06/03 A3017 RMK AO2
     T00620030=
KLUM 271255Z AUTO 30010KT 10SM CLR 06/03 A3017 RMK AO2
     T00620030=
KMDZ 271315Z AUTO 31009KT 10SM SCT011 SCT030 04/04 A3010 RMK
     AO2 T00400036 PWINO=
KMDZ 271315Z AUTO 31009KT 10SM SCT011 SCT030 04/04 A3010 RMK
     AO2 T00400036 PWINO=
KMDZ 271255Z AUTO 32009KT 10SM SCT022 BKN030 04/04 A3009 RMK
     AO2 T00360036 PWINO=
KMFI 271254Z AUTO 33009KT 10SM CLR 04/02 A3009 RMK AO2
     SLP201 T00390022=
KMKE 271252Z 30010KT 10SM FEW030 SCT180 09/04 A3002 RMK AO2
     SLP167 T00890039=
KMKE 271252Z 30010KT 10SM FEW030 SCT180 09/04 A3002 RMK AO2
     SLP167 T00890039=
KMRJ 271315Z AUTO 34006KT 10SM CLR 06/03 A3011 RMK AO2=
KMRJ 271315Z AUTO 34006KT 10SM CLR 06/03 A3011 RMK AO2=
KMRJ 271255Z AUTO 30004KT 10SM CLR 05/03 A3010 RMK AO2=
KMSN 271253Z 32005KT 10SM FEW050 FEW250 07/03 A3007 RMK AO2
     SLP187 T00720033=
KMTW 271256Z AUTO 30011KT 10SM SCT025 BKN080 06/04 A3000 RMK
     AO2 SLP162 T00610039=
KMTW 271256Z AUTO 30011KT 10SM SCT025 BKN080 06/04 A3000 RMK
     AO2 SLP162 T00610039=
KMWC 271245Z 29007KT 10SM CLR 07/03 A3003=
KMWC 271245Z 29007KT 10SM CLR 07/03 A3003=
KOEO 271315Z AUTO 00000KT 10SM CLR 06/05 A3024 RMK AO2
     T00560046=
KOEO 271315Z AUTO 00000KT 10SM CLR 06/05 A3024 RMK AO2
     T00560046=
KOEO 271255Z AUTO 36004KT 10SM CLR 05/04 A3023 RMK AO2
     T00480040=
KOSH 271253Z 30007KT 10SM CLR 06/04 A3003 RMK AO2 SLP172
     T00610039=
KOSH 271253Z 30007KT 10SM CLR 06/04 A3003 RMK AO2 SLP172
     T00610039=
KOVS 271253Z AUTO 00000KT 10SM CLR 04/04 A3013 RMK AO2
     SLP210 T00390039=
KPBH 271315Z AUTO 31005KT 10SM SCT023 03/03 A3011 RMK AO2
     T00320025=
KPBH 271315Z AUTO 31005KT 10SM SCT023 03/03 A3011 RMK AO2
     T00320025=
KPBH 271255Z AUTO 32004KT 10SM SCT018 BKN025 BKN034 03/03
     A3010 RMK AO2 T00300026=
KPCZ 271315Z AUTO 32006KT CLR 07/04 A3006 RMK AO2 T00730037
     PWINO=
KPCZ 271315Z AUTO 32006KT CLR 07/04 A3006 RMK AO2 T00730037
     PWINO=
KPCZ 271255Z AUTO 31007KT CLR 07/04 A3006 RMK AO2 T00670035
     PWINO=
KPDC 271315Z AUTO 00000KT 10SM CLR 07/03 A3014 RMK AO2
     T00670031=
KPDC 271255Z AUTO 00000KT 10SM CLR 05/03 A3014 RMK AO2
     T00490031=
KPDC 271255Z AUTO 00000KT 10SM CLR 05/03 A3014 RMK AO2
     T00490031=
KRAC 271253Z AUTO 30010KT 10SM CLR 08/04 A3004 RMK AO2
     SLP174 T00830044=
KRCX 271315Z AUTO 33008KT 10SM CLR 04/02 A3016 RMK AO2
     T00410017=
KRCX 271315Z AUTO 33008KT 10SM CLR 04/02 A3016 RMK AO2
     T00410017=
KRCX 271255Z AUTO 32008KT 10SM CLR 04/02 A3015 RMK AO2
     T00360020=
KRHI 271308Z AUTO VRB05KT 10SM SCT020 05/02 A3006 RMK AO2
     T00500017=
KRHI 271253Z AUTO 35007G16KT 310V020 10SM BKN020 05/02 A3006
     RMK AO2 SLP190 T00500017=
KRNH 271255Z AUTO 35004KT 10SM CLR 03/01 A3019 RMK AO2
     T00290013=
KRNH 271315Z AUTO 35006KT 10SM CLR 05/02 A3020 RMK AO2
     T00460022=
KRNH 271255Z AUTO 35004KT 10SM CLR 03/01 A3019 RMK AO2
     T00290013=
KRPD 271315Z AUTO 34003KT 10SM CLR 04/03 A3018 RMK AO2
     T00380025=
KRPD 271255Z AUTO 00000KT 10SM CLR 03/02 A3017 RMK AO2
     T00300020=
KRPD 271255Z AUTO 00000KT 10SM CLR 03/02 A3017 RMK AO2
     T00300020=
KRRL 271315Z AUTO 33007KT 10SM BKN017 04/03 A3007 RMK AO2
     T00370031 TSNO=
KRRL 271315Z AUTO 33007KT 10SM BKN017 04/03 A3007 RMK AO2
     T00370031 TSNO=
KRRL 271255Z AUTO 32004KT 10SM OVC017 03/03 A3007 RMK AO2
     T00330030 TSNO=
KRYV 271315Z AUTO 30008KT 10SM CLR 06/04 A3006 RMK AO2
     T00640037=
KRYV 271315Z AUTO 30008KT 10SM CLR 06/04 A3006 RMK AO2
     T00640037=
KRYV 271255Z AUTO 30005KT 10SM CLR 06/04 A3006 RMK AO2
     T00570041=
KRZN 271315Z AUTO 36004KT 10SM CLR 02/01 A3021 RMK AO2
     T00240013=
KRZN 271315Z AUTO 36004KT 10SM CLR 02/01 A3021 RMK AO2
     T00240013=
KRZN 271255Z AUTO 32003KT 10SM CLR 00/M01 A3020 RMK AO2
     T10011006=
KSBM 271253Z AUTO 32013G20KT 10SM CLR 08/04 A3001 RMK AO2
     SLP164 T00780044=
KSTE 271315Z AUTO 33010KT 10SM SCT022 06/02 A3009 RMK AO2
     T00600021=
KSTE 271315Z AUTO 33010KT 10SM SCT022 06/02 A3009 RMK AO2
     T00600021=
KSTE 271255Z AUTO 32004KT 10SM CLR 05/02 A3008 RMK AO2
     T00530023=
KSUE 271256Z AUTO 32015G19KT 10SM OVC018 08/04 A2999 RMK AO2
     SLP157 T00780044=
KSUW 271315Z AUTO 34004KT 10SM CLR 04/00 A3022 RMK AO2
     T00380002=
KSUW 271255Z AUTO 34006KT 10SM CLR 03/00 A3021 RMK AO2
     T00281001=
KSUW 271255Z AUTO 34006KT 10SM CLR 03/00 A3021 RMK AO2
     T00281001=
KTKV 271315Z AUTO 32005KT 10SM BKN014 BKN022 05/04 A3008 RMK
     AO2 T00480037 PWINO=
KTKV 271315Z AUTO 32005KT 10SM BKN014 BKN022 05/04 A3008 RMK
     AO2 T00480037 PWINO=
KTKV 271255Z AUTO 32005KT 10SM BKN014 04/03 A3008 RMK AO2
     T00390030 PWINO=
KUES 271245Z 30008KT 10SM CLR 06/04 A3004=
KUES 271245Z 30008KT 10SM CLR 06/04 A3004=
KUNU 271315Z AUTO 30003KT 10SM CLR 06/04 A3007 RMK AO2
     T00570043=
KUNU 271255Z AUTO 29003KT 10SM CLR 05/04 A3006 RMK AO2
     T00490041=
KY50 271256Z AUTO 31009KT 10SM BKN090 05/03 A3008 RMK AO2
     SLP187 T00500033 $=
KY51 271315Z AUTO 31005KT 10SM CLR 05/05 A3013 RMK AO1
     T00520045=
KY51 271315Z AUTO 31005KT 10SM CLR 05/05 A3013 RMK AO1
     T00520045=
KY51 271255Z AUTO 32005KT 10SM CLR 04/04 A3012 RMK AO1
     T00410040=
KY23 271315Z AUTO 36004KT 10SM CLR 06/03 A3018 RMK AO2
     T00600028=
KY23 271315Z AUTO 36004KT 10SM CLR 06/03 A3018 RMK AO2
     T00600028=
KY23 271255Z AUTO 00000KT 10SM CLR 05/03 A3017 RMK AO2
     T00500031=
K3D2 271315Z AUTO 33014G22KT 10SM OVC018 07/04 A2997 RMK AO2
     T00670038=
K3D2 271315Z AUTO 33014G22KT 10SM OVC018 07/04 A2997 RMK AO2
     T00670038=
K3D2 271255Z AUTO 34014G20KT 10SM OVC018 07/04 A2996 RMK AO2
     T00670037=
K4R5 271315Z AUTO 01008G14KT 10SM SCT026 OVC035 07/03 A3017
     RMK AO2 T00660027=
K4R5 271315Z AUTO 01008G14KT 10SM SCT026 OVC035 07/03 A3017
     RMK AO2 T00660027=
K4R5 271255Z AUTO 36010G16KT 10SM SCT025 BKN032 OVC037 07/02
     A3015 RMK AO2 T00650024=
KD25 271315Z AUTO 34006KT 10SM OVC013 04/04 A3009 RMK AO2
     T00380038=
KD25 271315Z AUTO 34006KT 10SM OVC013 04/04 A3009 RMK AO2
     T00380038=
KD25 271255Z AUTO 33005KT 10SM BKN013 OVC031 04/04 A3008 RMK
     AO2 T00350035=
K82C 271315Z AUTO 31006KT 10SM CLR 06/04 A3011 RMK AO2
     T00600040=
K82C 271315Z AUTO 31006KT 10SM CLR 06/04 A3011 RMK AO2
     T00600040=
K82C 271255Z AUTO 31007KT 10SM CLR 06/04 A3010 RMK AO2
     T00550041=
KOCQ 271315Z AUTO 31005KT 10SM OVC090 07/05 A3001 RMK AO1
     T00650051=
KOCQ 271315Z AUTO 31005KT 10SM OVC090 07/05 A3001 RMK AO1
     T00650051=
KOCQ 271255Z AUTO 31007KT 10SM OVC090 06/05 A3001 RMK AO1
     T00600050=
KC35 271315Z AUTO 30006KT 10SM CLR 06/04 A3011 RMK AO2
     T00550040 PWINO=
KC35 271255Z AUTO 29005KT 10SM CLR 05/04 A3010 RMK AO2
     T00490040 PWINO=
KC35 271315Z AUTO 30006KT 10SM CLR 06/04 A3011 RMK AO2
     T00550040 PWINO=
KC35 271255Z AUTO 29005KT 10SM CLR 05/04 A3010 RMK AO2
     T00490040 PWINO=
KOLG 271315Z AUTO 00000KT 10SM CLR 01/00 A3019 RMK AO1=
KOLG 271315Z AUTO 00000KT 10SM CLR 01/00 A3019 RMK AO1=
KOLG 271255Z AUTO 00000KT 10SM CLR 01/00 A3017 RMK AO1=
K2P2 271315Z AUTO 35010G17KT 10SM BKN018 OVC033 07/06 A2996
     RMK AO2 T00710060=
K2P2 271315Z AUTO 35010G17KT 10SM BKN018 OVC033 07/06 A2996
     RMK AO2 T00710060=
K2P2 271255Z AUTO 34015G21KT 10SM BKN015 BKN021 OVC035 07/06
     A2995 RMK AO2 T00690064=
KDBQ 271253Z 33007KT 10SM CLR 07/03 A3011 RMK AO2 SLP203
     T00720028=
KDBQ 271253Z 33007KT 10SM CLR 07/03 A3011 RMK AO2 SLP203
     T00720028=
KRST 271254Z 32006KT 10SM CLR 06/04 A3017 RMK AO2 SLP226
     T00610039=
KRST 271254Z 32006KT 10SM CLR 06/04 A3017 RMK AO2 SLP226
     T00610039=
KMSP 271253Z 01007KT 10SM FEW100 08/01 A3020 RMK AO2 SLP229
     T00780011=
KRFD 271254Z 32005KT 10SM BKN110 07/04 A3009 RMK AO2 SLP193
     T00670039=
KRFD 271254Z 32005KT 10SM BKN110 07/04 A3009 RMK AO2 SLP193
     T00670039=
KORD 271251Z 28008KT 10SM FEW040 BKN170 09/04 A3004 RMK AO2
     SLP172 VIRGA T00890039=